Terminal Aerodrome Forecast
Issued by NWS Charleston, WV

Current Version | Previous Version | Text Only | Print | Product List | Glossary Off
Versions: 1 2 3 4 5 6 7 8 9 10 11 12 13 14 15 16 17 18 19 20 21 22 23 24 25

004
FTUS41 KRLX 192325
TAFEKN
TAF
KEKN 192325Z 2000/2024 26004KT P6SM SCT150
     FM200400 00000KT 4SM BR BKN035
     FM200600 00000KT 1SM BR VCTS BKN015CB
     FM200800 00000KT 1/4SM FG OVC001
     FM201200 15004KT 4SM BR SCT002 BKN025
     FM201300 VRB03KT 6SM BR BKN040
     FM201600 00000KT P6SM SHRA VCTS BKN040CB
     FM202100 12005KT P6SM BKN035=

USA.gov is the U.S. government's official web portal to all federal, state and local government web resources and services.